sensor_id;sensor_type;location;lat;lon;timestamp;pressure;altitude;pressure_sealevel;temperature;humidity
26865;BME280;40618;51.166;10.322;2023-08-31T00:00:42;96617.16;;;12.16;79.56
26865;BME280;40618;51.166;10.322;2023-08-31T00:03:09;96630.13;;;12.16;79.40
26865;BME280;40618;51.166;10.322;2023-08-31T00:05:37;96628.47;;;12.15;79.49
26865;BME280;40618;51.166;10.322;2023-08-31T00:08:06;96634.50;;;12.16;79.18
26865;BME280;40618;51.166;10.322;2023-08-31T00:10:32;96627.69;;;12.13;79.39
26865;BME280;40618;51.166;10.322;2023-08-31T00:12:58;96621.50;;;12.16;79.79
26865;BME280;40618;51.166;10.322;2023-08-31T00:15:24;96626.00;;;12.12;79.50
26865;BME280;40618;51.166;10.322;2023-08-31T00:17:50;96627.03;;;12.10;79.46
26865;BME280;40618;51.166;10.322;2023-08-31T00:20:15;96632.22;;;12.10;79.72
26865;BME280;40618;51.166;10.322;2023-08-31T00:22:42;96622.50;;;12.13;79.61
26865;BME280;40618;51.166;10.322;2023-08-31T00:25:07;96615.63;;;12.12;79.36
26865;BME280;40618;51.166;10.322;2023-08-31T00:27:34;96610.69;;;12.08;79.24
26865;BME280;40618;51.166;10.322;2023-08-31T00:30:03;96619.25;;;12.10;79.21
26865;BME280;40618;51.166;10.322;2023-08-31T00:32:32;96623.50;;;12.11;79.62
26865;BME280;40618;51.166;10.322;2023-08-31T00:34:59;96622.44;;;11.97;79.38
26865;BME280;40618;51.166;10.322;2023-08-31T00:37:24;96623.53;;;11.92;79.47
26865;BME280;40618;51.166;10.322;2023-08-31T00:39:50;96627.97;;;11.90;79.56
26865;BME280;40618;51.166;10.322;2023-08-31T00:42:18;96629.84;;;11.86;79.66
26865;BME280;40618;51.166;10.322;2023-08-31T00:44:43;96628.03;;;11.88;79.65
26865;BME280;40618;51.166;10.322;2023-08-31T00:47:12;96638.53;;;11.85;79.69
26865;BME280;40618;51.166;10.322;2023-08-31T00:49:40;96641.09;;;11.87;79.83
26865;BME280;40618;51.166;10.322;2023-08-31T00:52:06;96633.97;;;11.90;79.78
26865;BME280;40618;51.166;10.322;2023-08-31T00:54:34;96647.88;;;11.89;80.05
26865;BME280;40618;51.166;10.322;2023-08-31T00:57:00;96654.06;;;11.87;79.65
26865;BME280;40618;51.166;10.322;2023-08-31T00:59:26;96655.41;;;11.76;79.58
26865;BME280;40618;51.166;10.322;2023-08-31T01:02:18;96652.97;;;11.73;79.62
26865;BME280;40618;51.166;10.322;2023-08-31T01:08:02;96653.03;;;11.72;79.98
26865;BME280;40618;51.166;10.322;2023-08-31T01:13:51;96657.84;;;11.79;79.92
26865;BME280;40618;51.166;10.322;2023-08-31T01:16:24;96651.41;;;11.69;79.59
26865;BME280;40618;51.166;10.322;2023-08-31T01:18:50;96658.09;;;11.56;79.87
26865;BME280;40618;51.166;10.322;2023-08-31T01:21:39;96651.22;;;11.55;80.26
26865;BME280;40618;51.166;10.322;2023-08-31T01:24:09;96656.34;;;11.56;80.26
26865;BME280;40618;51.166;10.322;2023-08-31T01:26:35;96659.22;;;11.50;80.05
26865;BME280;40618;51.166;10.322;2023-08-31T01:29:01;96658.31;;;11.51;80.16
26865;BME280;40618;51.166;10.322;2023-08-31T01:31:27;96662.44;;;11.55;80.04
26865;BME280;40618;51.166;10.322;2023-08-31T01:33:54;96657.25;;;11.55;80.24
26865;BME280;40618;51.166;10.322;2023-08-31T01:36:30;96665.03;;;11.55;80.06
26865;BME280;40618;51.166;10.322;2023-08-31T01:39:07;96652.97;;;11.54;80.12
26865;BME280;40618;51.166;10.322;2023-08-31T01:42:12;96649.53;;;11.54;80.21
26865;BME280;40618;51.166;10.322;2023-08-31T01:44:41;96650.38;;;11.54;80.17
26865;BME280;40618;51.166;10.322;2023-08-31T01:47:08;96653.25;;;11.48;80.28
26865;BME280;40618;51.166;10.322;2023-08-31T01:49:39;96667.41;;;11.41;80.15
26865;BME280;40618;51.166;10.322;2023-08-31T01:52:06;96663.28;;;11.37;80.34
26865;BME280;40618;51.166;10.322;2023-08-31T01:54:32;96665.81;;;11.38;80.34
26865;BME280;40618;51.166;10.322;2023-08-31T01:56:58;96668.41;;;11.38;79.98
26865;BME280;40618;51.166;10.322;2023-08-31T01:59:24;96668.47;;;11.37;80.46
26865;BME280;40618;51.166;10.322;2023-08-31T02:01:51;96671.91;;;11.37;80.46
26865;BME280;40618;51.166;10.322;2023-08-31T02:04:17;96672.19;;;11.31;80.45
26865;BME280;40618;51.166;10.322;2023-08-31T02:06:43;96670.09;;;11.20;80.31
26865;BME280;40618;51.166;10.322;2023-08-31T02:09:08;96676.09;;;11.21;80.68
26865;BME280;40618;51.166;10.322;2023-08-31T02:11:34;96677.63;;;11.25;80.48
26865;BME280;40618;51.166;10.322;2023-08-31T02:14:04;96675.91;;;11.25;80.53
26865;BME280;40618;51.166;10.322;2023-08-31T02:16:31;96676.72;;;11.26;80.41
26865;BME280;40618;51.166;10.322;2023-08-31T02:18:57;96675.91;;;11.25;80.80
26865;BME280;40618;51.166;10.322;2023-08-31T02:21:23;96682.91;;;11.23;80.41
26865;BME280;40618;51.166;10.322;2023-08-31T02:23:49;96684.84;;;11.18;80.68
26865;BME280;40618;51.166;10.322;2023-08-31T02:26:14;96682.47;;;11.13;80.71
26865;BME280;40618;51.166;10.322;2023-08-31T02:28:40;96684.41;;;11.08;80.47
26865;BME280;40618;51.166;10.322;2023-08-31T02:31:05;96688.84;;;11.06;80.38
26865;BME280;40618;51.166;10.322;2023-08-31T02:33:31;96690.72;;;11.03;80.54
26865;BME280;40618;51.166;10.322;2023-08-31T02:35:57;96694.28;;;11.00;81.04
26865;BME280;40618;51.166;10.322;2023-08-31T02:38:23;96691.69;;;11.00;81.07
26865;BME280;40618;51.166;10.322;2023-08-31T02:40:49;96697.81;;;10.99;81.13
26865;BME280;40618;51.166;10.322;2023-08-31T02:43:15;96695.91;;;11.03;81.13
26865;BME280;40618;51.166;10.322;2023-08-31T02:45:41;96695.06;;;11.02;80.92
26865;BME280;40618;51.166;10.322;2023-08-31T02:48:07;96696.53;;;11.08;81.37
26865;BME280;40618;51.166;10.322;2023-08-31T02:50:36;96692.84;;;11.13;81.15
26865;BME280;40618;51.166;10.322;2023-08-31T02:53:03;96690.31;;;11.12;80.78
26865;BME280;40618;51.166;10.322;2023-08-31T02:55:32;96689.34;;;11.14;81.18
26865;BME280;40618;51.166;10.322;2023-08-31T02:57:58;96688.28;;;11.18;81.12
26865;BME280;40618;51.166;10.322;2023-08-31T03:00:24;96695.09;;;11.21;81.37
26865;BME280;40618;51.166;10.322;2023-08-31T03:02:50;96696.63;;;11.25;81.25
26865;BME280;40618;51.166;10.322;2023-08-31T03:05:19;96687.09;;;11.26;81.32
26865;BME280;40618;51.166;10.322;2023-08-31T03:07:46;96694.88;;;11.26;80.79
26865;BME280;40618;51.166;10.322;2023-08-31T03:10:12;96687.97;;;11.26;81.17
26865;BME280;40618;51.166;10.322;2023-08-31T03:12:38;96694.88;;;11.26;81.17
26865;BME280;40618;51.166;10.322;2023-08-31T03:15:05;96689.53;;;11.29;81.32
26865;BME280;40618;51.166;10.322;2023-08-31T03:17:31;96700.69;;;11.31;81.27
26865;BME280;40618;51.166;10.322;2023-08-31T03:19:57;96697.88;;;11.35;81.14
26865;BME280;40618;51.166;10.322;2023-08-31T03:22:23;96702.31;;;11.33;81.39
26865;BME280;40618;51.166;10.322;2023-08-31T03:24:48;96705.59;;;11.37;81.51
26865;BME280;40618;51.166;10.322;2023-08-31T03:27:14;96707.28;;;11.38;81.23
26865;BME280;40618;51.166;10.322;2023-08-31T03:29:41;96706.31;;;11.41;81.31
26865;BME280;40618;51.166;10.322;2023-08-31T03:32:06;96708.97;;;11.39;81.35
26865;BME280;40618;51.166;10.322;2023-08-31T03:34:32;96701.25;;;11.38;81.33
26865;BME280;40618;51.166;10.322;2023-08-31T03:36:58;96707.22;;;11.40;81.41
26865;BME280;40618;51.166;10.322;2023-08-31T03:39:24;96707.00;;;11.44;81.32
26865;BME280;40618;51.166;10.322;2023-08-31T03:41:50;96708.56;;;11.48;81.24
26865;BME280;40618;51.166;10.322;2023-08-31T03:44:16;96719.59;;;11.52;81.19
26865;BME280;40618;51.166;10.322;2023-08-31T03:46:42;96711.97;;;11.49;81.04
26865;BME280;40618;51.166;10.322;2023-08-31T03:49:08;96704.34;;;11.46;81.44
26865;BME280;40618;51.166;10.322;2023-08-31T03:51:34;96714.88;;;11.43;81.29
26865;BME280;40618;51.166;10.322;2023-08-31T03:54:00;96712.28;;;11.43;81.34
26865;BME280;40618;51.166;10.322;2023-08-31T03:56:25;96711.25;;;11.45;81.20
26865;BME280;40618;51.166;10.322;2023-08-31T03:58:52;96711.41;;;11.42;81.33
26865;BME280;40618;51.166;10.322;2023-08-31T04:01:17;96713.31;;;11.39;81.14
26865;BME280;40618;51.166;10.322;2023-08-31T04:03:43;96708.97;;;11.39;81.74
26865;BME280;40618;51.166;10.322;2023-08-31T04:06:09;96716.53;;;11.44;81.55
26865;BME280;40618;51.166;10.322;2023-08-31T04:08:34;96705.19;;;11.46;81.51
26865;BME280;40618;51.166;10.322;2023-08-31T04:11:00;96709.13;;;11.36;81.61
26865;BME280;40618;51.166;10.322;2023-08-31T04:13:26;96713.00;;;11.26;81.47
26865;BME280;40618;51.166;10.322;2023-08-31T04:15:52;96717.50;;;11.22;81.27
26865;BME280;40618;51.166;10.322;2023-08-31T04:18:18;96715.75;;;11.23;81.57
26865;BME280;40618;51.166;10.322;2023-08-31T04:20:53;96716.66;;;11.22;81.62
26865;BME280;40618;51.166;10.322;2023-08-31T04:23:19;96729.69;;;11.20;81.54
26865;BME280;40618;51.166;10.322;2023-08-31T04:25:46;96724.56;;;11.18;81.60
26865;BME280;40618;51.166;10.322;2023-08-31T04:28:12;96721.06;;;11.20;81.48
26865;BME280;40618;51.166;10.322;2023-08-31T04:30:41;96723.53;;;11.23;81.70
26865;BME280;40618;51.166;10.322;2023-08-31T04:33:07;96733.31;;;11.16;81.61
26865;BME280;40618;51.166;10.322;2023-08-31T04:35:33;96733.72;;;11.07;81.78
26865;BME280;40618;51.166;10.322;2023-08-31T04:37:59;96736.78;;;10.96;81.84
26865;BME280;40618;51.166;10.322;2023-08-31T04:40:25;96729.00;;;10.96;81.96
26865;BME280;40618;51.166;10.322;2023-08-31T04:42:52;96733.84;;;11.04;82.02
26865;BME280;40618;51.166;10.322;2023-08-31T04:45:17;96744.06;;;11.07;82.06
26865;BME280;40618;51.166;10.322;2023-08-31T04:47:43;96742.22;;;11.10;82.06
26865;BME280;40618;51.166;10.322;2023-08-31T04:50:09;96750.06;;;11.09;82.22
26865;BME280;40618;51.166;10.322;2023-08-31T04:52:35;96752.44;;;11.13;82.14
26865;BME280;40618;51.166;10.322;2023-08-31T04:55:06;96755.16;;;11.10;82.11
26865;BME280;40618;51.166;10.322;2023-08-31T04:57:37;96761.03;;;11.14;81.87
26865;BME280;40618;51.166;10.322;2023-08-31T05:00:03;96759.22;;;11.16;81.99
26865;BME280;40618;51.166;10.322;2023-08-31T05:02:30;96757.41;;;11.18;81.75
26865;BME280;40618;51.166;10.322;2023-08-31T05:04:55;96761.00;;;11.15;81.86
26865;BME280;40618;51.166;10.322;2023-08-31T05:07:21;96754.19;;;11.13;82.16
26865;BME280;40618;51.166;10.322;2023-08-31T05:09:46;96770.50;;;11.15;81.84
26865;BME280;40618;51.166;10.322;2023-08-31T05:12:12;96753.06;;;11.18;82.26
26865;BME280;40618;51.166;10.322;2023-08-31T05:14:37;96759.94;;;11.20;81.81
26865;BME280;40618;51.166;10.322;2023-08-31T05:17:05;96766.03;;;11.18;81.95
26865;BME280;40618;51.166;10.322;2023-08-31T05:19:31;96769.38;;;11.21;81.98
26865;BME280;40618;51.166;10.322;2023-08-31T05:21:57;96769.38;;;11.21;82.11
26865;BME280;40618;51.166;10.322;2023-08-31T05:24:23;96779.00;;;11.18;81.88
26865;BME280;40618;51.166;10.322;2023-08-31T05:26:51;96785.06;;;11.17;82.26
26865;BME280;40618;51.166;10.322;2023-08-31T05:29:17;96793.81;;;11.15;81.69
26865;BME280;40618;51.166;10.322;2023-08-31T05:31:42;96795.75;;;11.10;82.03
26865;BME280;40618;51.166;10.322;2023-08-31T05:34:15;96806.91;;;11.12;82.21
26865;BME280;40618;51.166;10.322;2023-08-31T05:36:41;96800.81;;;11.13;82.02
26865;BME280;40618;51.166;10.322;2023-08-31T05:39:07;96800.94;;;11.10;82.07
26865;BME280;40618;51.166;10.322;2023-08-31T05:41:34;96811.44;;;11.07;81.73
26865;BME280;40618;51.166;10.322;2023-08-31T05:43:59;96813.25;;;11.05;82.30
26865;BME280;40618;51.166;10.322;2023-08-31T05:46:25;96815.13;;;11.01;82.28
26865;BME280;40618;51.166;10.322;2023-08-31T05:48:50;96810.03;;;10.99;82.40
26865;BME280;40618;51.166;10.322;2023-08-31T05:51:17;96810.91;;;10.98;81.96
26865;BME280;40618;51.166;10.322;2023-08-31T05:53:43;96805.56;;;11.03;82.38
26865;BME280;40618;51.166;10.322;2023-08-31T05:56:08;96815.78;;;11.06;82.13
26865;BME280;40618;51.166;10.322;2023-08-31T05:58:36;96808.78;;;11.08;82.57
26865;BME280;40618;51.166;10.322;2023-08-31T06:01:03;96812.03;;;11.13;82.56
26865;BME280;40618;51.166;10.322;2023-08-31T06:03:30;96805.06;;;11.14;82.62
26865;BME280;40618;51.166;10.322;2023-08-31T06:05:57;96802.38;;;11.17;82.74
26865;BME280;40618;51.166;10.322;2023-08-31T06:08:24;96815.25;;;11.18;82.18
26865;BME280;40618;51.166;10.322;2023-08-31T06:10:50;96810.91;;;11.19;82.61
26865;BME280;40618;51.166;10.322;2023-08-31T06:13:16;96807.50;;;11.18;82.74
26865;BME280;40618;51.166;10.322;2023-08-31T06:15:42;96817.78;;;11.20;82.53
26865;BME280;40618;51.166;10.322;2023-08-31T06:18:09;96812.84;;;11.14;82.69
26865;BME280;40618;51.166;10.322;2023-08-31T06:20:35;96809.63;;;11.09;82.62
26865;BME280;40618;51.166;10.322;2023-08-31T06:23:01;96811.97;;;10.94;82.50
26865;BME280;40618;51.166;10.322;2023-08-31T06:25:28;96814.09;;;10.84;82.12
26865;BME280;40618;51.166;10.322;2023-08-31T06:27:53;96822.09;;;10.78;82.70
26865;BME280;40618;51.166;10.322;2023-08-31T06:30:19;96822.09;;;10.78;82.69
26865;BME280;40618;51.166;10.322;2023-08-31T06:32:46;96829.88;;;10.78;83.07
26865;BME280;40618;51.166;10.322;2023-08-31T06:35:13;96829.94;;;10.77;82.97
26865;BME280;40618;51.166;10.322;2023-08-31T06:37:42;96826.59;;;10.75;82.72
26865;BME280;40618;51.166;10.322;2023-08-31T06:40:09;96825.56;;;10.79;83.00
26865;BME280;40618;51.166;10.322;2023-08-31T06:42:36;96834.00;;;10.82;83.05
26865;BME280;40618;51.166;10.322;2023-08-31T06:45:07;96837.34;;;10.86;83.17
26865;BME280;40618;51.166;10.322;2023-08-31T06:47:33;96834.56;;;10.91;83.50
26865;BME280;40618;51.166;10.322;2023-08-31T06:49:59;96835.34;;;10.93;83.69
26865;BME280;40618;51.166;10.322;2023-08-31T06:52:26;96833.53;;;10.95;83.41
26865;BME280;40618;51.166;10.322;2023-08-31T06:54:52;96840.50;;;10.93;83.24
26865;BME280;40618;51.166;10.322;2023-08-31T06:57:25;96841.34;;;10.93;83.34
26865;BME280;40618;51.166;10.322;2023-08-31T06:59:52;96842.06;;;10.97;83.49
26865;BME280;40618;51.166;10.322;2023-08-31T07:02:19;96846.16;;;11.03;83.56
26865;BME280;40618;51.166;10.322;2023-08-31T07:04:45;96844.22;;;11.08;83.87
26865;BME280;40618;51.166;10.322;2023-08-31T07:07:11;96837.94;;;11.13;83.55
26865;BME280;40618;51.166;10.322;2023-08-31T07:09:43;96850.66;;;11.20;83.51
26865;BME280;40618;51.166;10.322;2023-08-31T07:12:10;96852.28;;;11.22;83.39
26865;BME280;40618;51.166;10.322;2023-08-31T07:14:36;96848.75;;;11.23;83.51
26865;BME280;40618;51.166;10.322;2023-08-31T07:17:02;96856.53;;;11.23;83.74
26865;BME280;40618;51.166;10.322;2023-08-31T07:19:28;96860.81;;;11.24;83.64
26865;BME280;40618;51.166;10.322;2023-08-31T07:21:53;96870.28;;;11.25;83.77
26865;BME280;40618;51.166;10.322;2023-08-31T07:24:23;96867.53;;;11.28;83.46
26865;BME280;40618;51.166;10.322;2023-08-31T07:26:50;96864.81;;;11.31;83.35
26865;BME280;40618;51.166;10.322;2023-08-31T07:29:15;96864.63;;;11.36;83.58
26865;BME280;40618;51.166;10.322;2023-08-31T07:31:41;96867.91;;;11.40;83.36
26865;BME280;40618;51.166;10.322;2023-08-31T07:34:06;96876.41;;;11.43;83.55
26865;BME280;40618;51.166;10.322;2023-08-31T07:36:33;96872.06;;;11.44;83.62
26865;BME280;40618;51.166;10.322;2023-08-31T07:38:59;96878.88;;;11.46;83.89
26865;BME280;40618;51.166;10.322;2023-08-31T07:41:24;96885.53;;;11.52;83.77
26865;BME280;40618;51.166;10.322;2023-08-31T07:43:50;96878.47;;;11.56;83.43
26865;BME280;40618;51.166;10.322;2023-08-31T07:46:17;96879.28;;;11.58;83.39
26865;BME280;40618;51.166;10.322;2023-08-31T07:48:43;96883.47;;;11.60;83.52
26865;BME280;40618;51.166;10.322;2023-08-31T07:51:08;96889.50;;;11.61;83.59
26865;BME280;40618;51.166;10.322;2023-08-31T07:53:34;96891.19;;;11.62;83.42
26865;BME280;40618;51.166;10.322;2023-08-31T07:55:59;96892.84;;;11.63;83.20
26865;BME280;40618;51.166;10.322;2023-08-31T07:58:25;96891.88;;;11.65;83.19
26865;BME280;40618;51.166;10.322;2023-08-31T08:00:55;96890.66;;;11.74;83.67
26865;BME280;40618;51.166;10.322;2023-08-31T08:03:22;96890.88;;;11.89;83.45
26865;BME280;40618;51.166;10.322;2023-08-31T08:05:48;96893.84;;;12.00;83.38
26865;BME280;40618;51.166;10.322;2023-08-31T08:08:15;96892.88;;;12.02;83.23
26865;BME280;40618;51.166;10.322;2023-08-31T08:10:40;96896.34;;;12.03;83.31
26865;BME280;40618;51.166;10.322;2023-08-31T08:13:08;96902.22;;;12.07;83.02
26865;BME280;40618;51.166;10.322;2023-08-31T08:15:33;96902.63;;;12.16;83.55
26865;BME280;40618;51.166;10.322;2023-08-31T08:17:59;96902.94;;;12.29;83.38
26865;BME280;40618;51.166;10.322;2023-08-31T08:20:25;96912.75;;;12.42;83.22
26865;BME280;40618;51.166;10.322;2023-08-31T08:22:50;96915.13;;;12.46;83.08
26865;BME280;40618;51.166;10.322;2023-08-31T08:25:19;96916.25;;;12.41;82.83
26865;BME280;40618;51.166;10.322;2023-08-31T08:27:46;96906.25;;;12.33;82.44
26865;BME280;40618;51.166;10.322;2023-08-31T08:30:12;96905.38;;;12.32;82.28
26865;BME280;40618;51.166;10.322;2023-08-31T08:32:38;96903.44;;;12.38;82.48
26865;BME280;40618;51.166;10.322;2023-08-31T08:35:04;96905.59;;;12.47;82.84
26865;BME280;40618;51.166;10.322;2023-08-31T08:37:31;96905.84;;;12.60;82.44
26865;BME280;40618;51.166;10.322;2023-08-31T08:40:00;96892.22;;;12.74;82.63
26865;BME280;40618;51.166;10.322;2023-08-31T08:42:29;96911.09;;;12.77;82.19
26865;BME280;40618;51.166;10.322;2023-08-31T08:45:00;96901.06;;;12.69;81.37
26865;BME280;40618;51.166;10.322;2023-08-31T08:47:28;96912.59;;;12.64;81.45
26865;BME280;40618;51.166;10.322;2023-08-31T08:49:55;96913.50;;;12.63;81.98
26865;BME280;40618;51.166;10.322;2023-08-31T08:52:23;96916.88;;;12.65;81.54
26865;BME280;40618;51.166;10.322;2023-08-31T08:54:49;96916.88;;;12.65;81.27
26865;BME280;40618;51.166;10.322;2023-08-31T08:57:15;96916.16;;;12.61;81.29
26865;BME280;40618;51.166;10.322;2023-08-31T08:59:41;96925.56;;;12.64;81.15
26865;BME280;40618;51.166;10.322;2023-08-31T09:02:08;96921.25;;;12.64;80.73
26865;BME280;40618;51.166;10.322;2023-08-31T09:04:36;96928.97;;;12.66;80.75
26865;BME280;40618;51.166;10.322;2023-08-31T09:07:02;96923.06;;;12.62;80.65
26865;BME280;40618;51.166;10.322;2023-08-31T09:09:28;96924.13;;;12.58;80.45
26865;BME280;40618;51.166;10.322;2023-08-31T09:11:53;96923.13;;;12.61;80.83
26865;BME280;40618;51.166;10.322;2023-08-31T09:14:21;96909.84;;;12.67;80.57
26865;BME280;40618;51.166;10.322;2023-08-31T09:16:50;96919.72;;;12.78;80.90
26865;BME280;40618;51.166;10.322;2023-08-31T09:19:21;96920.44;;;12.81;80.28
26865;BME280;40618;51.166;10.322;2023-08-31T09:21:49;96918.31;;;12.90;80.67
26865;BME280;40618;51.166;10.322;2023-08-31T09:24:15;96914.50;;;12.97;80.36
26865;BME280;40618;51.166;10.322;2023-08-31T09:29:11;96920.84;;;13.09;80.00
26865;BME280;40618;51.166;10.322;2023-08-31T09:31:37;96923.56;;;13.25;80.17
26865;BME280;40618;51.166;10.322;2023-08-31T09:34:04;96925.34;;;13.42;80.21
26865;BME280;40618;51.166;10.322;2023-08-31T09:36:31;96931.81;;;13.50;79.95
26865;BME280;40618;51.166;10.322;2023-08-31T09:38:58;96939.16;;;13.60;79.84
26865;BME280;40618;51.166;10.322;2023-08-31T09:41:24;96929.75;;;13.57;79.29
26865;BME280;40618;51.166;10.322;2023-08-31T09:43:50;96927.66;;;13.48;79.02
26865;BME280;40618;51.166;10.322;2023-08-31T09:46:15;96932.06;;;13.46;79.34
26865;BME280;40618;51.166;10.322;2023-08-31T09:48:42;96927.13;;;13.41;78.67
26865;BME280;40618;51.166;10.322;2023-08-31T09:51:12;96930.88;;;13.34;78.23
26865;BME280;40618;51.166;10.322;2023-08-31T09:53:41;96928.84;;;13.41;78.42
26865;BME280;40618;51.166;10.322;2023-08-31T09:56:13;96934.91;;;13.59;78.41
26865;BME280;40618;51.166;10.322;2023-08-31T09:58:41;96929.91;;;13.71;77.88
26865;BME280;40618;51.166;10.322;2023-08-31T10:01:07;96925.47;;;13.74;77.10
26865;BME280;40618;51.166;10.322;2023-08-31T10:03:33;96928.59;;;13.80;76.54
26865;BME280;40618;51.166;10.322;2023-08-31T10:05:59;96918.97;;;13.82;76.77
26865;BME280;40618;51.166;10.322;2023-08-31T10:08:26;96930.06;;;13.86;76.75
26865;BME280;40618;51.166;10.322;2023-08-31T10:10:56;96925.59;;;13.88;76.47
26865;BME280;40618;51.166;10.322;2023-08-31T10:13:25;96931.72;;;13.87;76.05
26865;BME280;40618;51.166;10.322;2023-08-31T10:15:54;96930.97;;;13.85;76.11
26865;BME280;40618;51.166;10.322;2023-08-31T10:18:20;96931.06;;;13.83;75.62
26865;BME280;40618;51.166;10.322;2023-08-31T10:20:47;96929.13;;;13.87;75.75
26865;BME280;40618;51.166;10.322;2023-08-31T10:23:13;96925.50;;;13.90;75.90
26865;BME280;40618;51.166;10.322;2023-08-31T10:28:25;96920.59;;;14.01;75.16
26865;BME280;40618;51.166;10.322;2023-08-31T10:31:04;96926.72;;;14.00;75.04
26865;BME280;40618;51.166;10.322;2023-08-31T10:33:33;96928.38;;;14.01;75.63
26865;BME280;40618;51.166;10.322;2023-08-31T10:36:00;96930.94;;;14.02;75.13
26865;BME280;40618;51.166;10.322;2023-08-31T10:38:31;96920.59;;;14.01;74.40
26865;BME280;40618;51.166;10.322;2023-08-31T10:41:01;96912.63;;;14.04;74.78
26865;BME280;40618;51.166;10.322;2023-08-31T10:43:50;96914.84;;;14.28;75.02
26865;BME280;40618;51.166;10.322;2023-08-31T10:46:42;96917.13;;;14.50;75.30
26865;BME280;40618;51.166;10.322;2023-08-31T10:51:35;96923.53;;;14.76;74.28
26865;BME280;40618;51.166;10.322;2023-08-31T10:54:22;96917.88;;;15.00;74.91
26865;BME280;40618;51.166;10.322;2023-08-31T10:56:52;96919.00;;;15.26;73.92
26865;BME280;40618;51.166;10.322;2023-08-31T10:59:24;96921.34;;;15.31;73.93
26865;BME280;40618;51.166;10.322;2023-08-31T11:04:27;96916.69;;;15.36;73.18
26865;BME280;40618;51.166;10.322;2023-08-31T11:09:43;96902.56;;;15.10;72.82
26865;BME280;40618;51.166;10.322;2023-08-31T11:12:09;96910.28;;;15.11;73.18
26865;BME280;40618;51.166;10.322;2023-08-31T11:14:36;96892.59;;;15.32;72.92
26865;BME280;40618;51.166;10.322;2023-08-31T11:17:03;96906.53;;;15.31;72.29
26865;BME280;40618;51.166;10.322;2023-08-31T11:19:34;96910.34;;;15.26;71.90
26865;BME280;40618;51.166;10.322;2023-08-31T11:22:01;96905.88;;;15.28;71.79
26865;BME280;40618;51.166;10.322;2023-08-31T11:24:32;96913.78;;;15.26;71.35
26865;BME280;40618;51.166;10.322;2023-08-31T11:26:58;96901.84;;;15.22;71.19
26865;BME280;40618;51.166;10.322;2023-08-31T11:29:24;96914.31;;;15.17;71.51
26865;BME280;40618;51.166;10.322;2023-08-31T11:31:50;96907.50;;;15.14;70.69
26865;BME280;40618;51.166;10.322;2023-08-31T11:34:17;96912.72;;;15.14;71.19
26865;BME280;40618;51.166;10.322;2023-08-31T11:36:44;96917.38;;;15.39;71.52
26865;BME280;40618;51.166;10.322;2023-08-31T11:39:12;96923.47;;;15.54;71.28
26865;BME280;40618;51.166;10.322;2023-08-31T11:41:39;96919.06;;;15.55;71.02
26865;BME280;40618;51.166;10.322;2023-08-31T11:44:11;96910.16;;;15.73;70.79
26865;BME280;40618;51.166;10.322;2023-08-31T11:46:40;96903.38;;;15.85;70.50
26865;BME280;40618;51.166;10.322;2023-08-31T11:49:08;96895.19;;;15.92;69.83
26865;BME280;40618;51.166;10.322;2023-08-31T11:51:35;96912.72;;;15.89;69.63
26865;BME280;40618;51.166;10.322;2023-08-31T11:54:03;96933.31;;;15.80;69.80
26865;BME280;40618;51.166;10.322;2023-08-31T11:56:39;96922.19;;;15.76;69.31
26865;BME280;40618;51.166;10.322;2023-08-31T11:59:16;96924.16;;;15.72;69.46
26865;BME280;40618;51.166;10.322;2023-08-31T12:01:45;96920.41;;;15.77;69.38
26865;BME280;40618;51.166;10.322;2023-08-31T12:04:19;96908.97;;;15.79;69.60
26865;BME280;40618;51.166;10.322;2023-08-31T12:06:50;96909.56;;;15.84;69.30
26865;BME280;40618;51.166;10.322;2023-08-31T12:09:17;96914.94;;;15.81;68.86
26865;BME280;40618;51.166;10.322;2023-08-31T12:11:51;96924.56;;;15.81;68.95
26865;BME280;40618;51.166;10.322;2023-08-31T12:14:22;96913.94;;;15.84;68.69
26865;BME280;40618;51.166;10.322;2023-08-31T12:16:50;96918.03;;;15.88;68.84
26865;BME280;40618;51.166;10.322;2023-08-31T12:19:16;96911.41;;;15.82;68.24
26865;BME280;40618;51.166;10.322;2023-08-31T12:21:44;96911.56;;;15.79;68.55
26865;BME280;40618;51.166;10.322;2023-08-31T12:24:11;96912.06;;;15.86;68.90
26865;BME280;40618;51.166;10.322;2023-08-31T12:26:37;96911.53;;;15.95;68.58
26865;BME280;40618;51.166;10.322;2023-08-31T12:29:03;96909.56;;;15.99;68.36
26865;BME280;40618;51.166;10.322;2023-08-31T12:31:30;96909.09;;;16.06;68.56
26865;BME280;40618;51.166;10.322;2023-08-31T12:33:57;96905.06;;;16.15;68.40
26865;BME280;40618;51.166;10.322;2023-08-31T12:36:24;96909.38;;;16.16;67.90
26865;BME280;40618;51.166;10.322;2023-08-31T12:38:50;96918.69;;;16.20;67.36
26865;BME280;40618;51.166;10.322;2023-08-31T12:41:17;96918.50;;;16.23;67.00
26865;BME280;40618;51.166;10.322;2023-08-31T12:43:43;96912.53;;;16.21;67.01
26865;BME280;40618;51.166;10.322;2023-08-31T12:46:08;96924.13;;;16.17;66.93
26865;BME280;40618;51.166;10.322;2023-08-31T12:48:35;96920.75;;;16.15;67.16
26865;BME280;40618;51.166;10.322;2023-08-31T12:51:01;96923.53;;;16.12;67.21
26865;BME280;40618;51.166;10.322;2023-08-31T12:53:26;96922.06;;;16.08;66.96
26865;BME280;40618;51.166;10.322;2023-08-31T12:55:53;96926.16;;;16.12;67.20
26865;BME280;40618;51.166;10.322;2023-08-31T12:58:19;96916.38;;;16.16;66.67
26865;BME280;40618;51.166;10.322;2023-08-31T13:00:46;96920.19;;;16.10;67.18
26865;BME280;40618;51.166;10.322;2023-08-31T13:03:14;96921.13;;;16.09;66.89
26865;BME280;40618;51.166;10.322;2023-08-31T13:05:40;96921.50;;;16.17;66.59
26865;BME280;40618;51.166;10.322;2023-08-31T13:08:07;96914.97;;;16.24;65.95
26865;BME280;40618;51.166;10.322;2023-08-31T13:10:34;96908.41;;;16.32;65.74